createdAt,value
2023-11-21T00:00:14.881Z,100381.59
2023-11-21T00:00:36.761Z,100396.44
2023-11-21T00:01:02.262Z,100391.97
2023-11-21T00:01:24.935Z,100389.31
2023-11-21T00:01:46.651Z,100396.44
2023-11-21T00:02:08.533Z,100399.97
2023-11-21T00:02:31.493Z,100391.03
2023-11-21T00:02:53.260Z,100394.56
2023-11-21T00:03:16.061Z,100391.03
2023-11-21T00:03:38.751Z,100392.84
2023-11-21T00:04:01.299Z,100401.72
2023-11-21T00:04:24.315Z,100395.44
2023-11-21T00:04:46.722Z,100396.22
2023-11-21T00:05:09.209Z,100391.97
2023-11-21T00:05:31.056Z,100393.66
2023-11-21T00:05:54.037Z,100397.25
2023-11-21T00:06:15.726Z,100395.44
2023-11-21T00:06:37.371Z,100392.84
2023-11-21T00:06:59.022Z,100396.38
2023-11-21T00:07:22.419Z,100398.06
2023-11-21T00:07:45.759Z,100398.06
2023-11-21T00:08:07.462Z,100403.38
2023-11-21T00:08:29.312Z,100402.50
2023-11-21T00:08:50.984Z,100399.75
2023-11-21T00:09:13.962Z,100401.66
2023-11-21T00:09:37.629Z,100398.09
2023-11-21T00:09:59.225Z,100399.91
2023-11-21T00:10:20.873Z,100403.50
2023-11-21T00:10:44.092Z,100400.06
2023-11-21T00:11:06.529Z,100398.25
2023-11-21T00:11:29.163Z,100398.25
2023-11-21T00:11:50.761Z,100399.19
2023-11-21T00:12:12.520Z,100404.53
2023-11-21T00:12:34.488Z,100400.91
2023-11-21T00:12:56.329Z,100397.41
2023-11-21T00:13:18.942Z,100401.88
2023-11-21T00:13:41.619Z,100405.31
2023-11-21T00:14:04.026Z,100400.06
2023-11-21T00:14:25.746Z,100401.88
2023-11-21T00:14:47.350Z,100402.81
2023-11-21T00:15:10.761Z,100403.66
2023-11-21T00:15:32.570Z,100401.06
2023-11-21T00:15:57.681Z,100401.06
2023-11-21T00:16:19.513Z,100401.94
2023-11-21T00:16:41.298Z,100401.06
2023-11-21T00:17:03.124Z,100406.41
2023-11-21T00:17:25.440Z,100404.59
2023-11-21T00:17:48.230Z,100407.19
2023-11-21T00:18:09.936Z,100402.75
2023-11-21T00:18:31.755Z,100404.53
2023-11-21T00:18:53.353Z,100404.38
2023-11-21T00:19:15.190Z,100401.72
2023-11-21T00:19:39.102Z,100409.66
2023-11-21T00:20:00.975Z,100407.75
2023-11-21T00:20:23.564Z,100409.56
2023-11-21T00:20:45.168Z,100407.69
2023-11-21T00:21:07.427Z,100402.34
2023-11-21T00:21:29.114Z,100404.09
2023-11-21T00:21:51.509Z,100405.88
2023-11-21T00:22:14.097Z,100395.44
2023-11-21T00:22:35.897Z,100397.03
2023-11-21T00:22:57.550Z,100408.56
2023-11-21T00:23:19.203Z,100396.31
2023-11-21T00:23:41.347Z,100407.75
2023-11-21T00:24:03.363Z,100393.00
2023-11-21T00:24:25.925Z,100406.81
2023-11-21T00:24:47.743Z,100410.34
2023-11-21T00:25:10.180Z,100407.75
2023-11-21T00:25:32.457Z,100402.50
2023-11-21T00:25:54.178Z,100412.16
2023-11-21T00:26:16.836Z,100409.56
2023-11-21T00:26:43.034Z,100405.03
2023-11-21T00:27:04.848Z,100402.34
2023-11-21T00:27:30.029Z,100401.47
2023-11-21T00:27:56.702Z,100392.72
2023-11-21T00:28:26.770Z,100404.84
2023-11-21T00:28:51.449Z,100405.81
2023-11-21T00:29:13.672Z,100407.53
2023-11-21T00:29:50.631Z,100377.22
2023-11-21T00:30:15.409Z,100403.44
2023-11-21T00:30:40.310Z,100390.19
2023-11-21T00:31:09.848Z,100407.75
2023-11-21T00:31:33.105Z,100404.22
2023-11-21T00:33:09.578Z,100400.78
2023-11-21T00:33:36.974Z,100408.84
2023-11-21T00:33:58.913Z,100401.72
2023-11-21T00:34:24.723Z,100409.72
2023-11-21T00:34:49.167Z,100409.72
2023-11-21T00:35:14.945Z,100414.25
2023-11-21T00:35:46.582Z,100406.56
2023-11-21T00:37:17.938Z,100423.25
2023-11-21T00:38:02.308Z,100412.75
2023-11-21T00:38:32.638Z,100415.41
2023-11-21T00:39:05.423Z,100420.66
2023-11-21T00:39:34.223Z,100419.03
2023-11-21T00:40:07.302Z,100408.63
2023-11-21T00:40:32.852Z,100411.94
2023-11-21T00:40:59.496Z,100413.81
2023-11-21T00:42:31.176Z,100409.50
2023-11-21T00:43:06.463Z,100422.63
2023-11-21T00:44:11.531Z,100416.47
2023-11-21T00:44:53.223Z,100420.94
2023-11-21T00:45:16.786Z,100424.56
2023-11-21T00:45:53.786Z,100421.03
2023-11-21T00:46:20.612Z,100428.88
2023-11-21T00:46:48.819Z,100424.34
2023-11-21T00:47:20.195Z,100428.81
2023-11-21T00:47:48.229Z,100425.22
2023-11-21T00:48:11.587Z,100420.81
2023-11-21T00:48:37.621Z,100422.69
2023-11-21T00:49:02.700Z,100431.53
2023-11-21T00:49:45.305Z,100423.59
2023-11-21T00:50:11.675Z,100429.91
2023-11-21T00:50:34.314Z,100428.88
2023-11-21T00:50:57.260Z,100427.13
2023-11-21T00:51:18.955Z,100426.28
2023-11-21T00:51:40.620Z,100431.47
2023-11-21T00:52:03.810Z,100419.09
2023-11-21T00:52:25.498Z,100420.94
2023-11-21T00:52:48.381Z,100427.25
2023-11-21T00:53:10.021Z,100426.28
2023-11-21T00:53:31.669Z,100428.94
2023-11-21T00:53:53.335Z,100423.59
2023-11-21T00:54:14.915Z,100421.91
2023-11-21T00:54:36.959Z,100424.41
2023-11-21T00:55:01.065Z,100423.53
2023-11-21T00:55:22.958Z,100422.69
2023-11-21T00:55:44.633Z,100423.53
2023-11-21T00:56:07.895Z,100420.94
2023-11-21T00:56:29.682Z,100429.69
2023-11-21T00:56:52.271Z,100430.63
2023-11-21T00:57:13.882Z,100418.22
2023-11-21T00:57:35.982Z,100425.22
2023-11-21T00:57:57.628Z,100418.94
2023-11-21T00:58:20.173Z,100419.94
2023-11-21T00:58:44.677Z,100428.75
2023-11-21T00:59:06.372Z,100426.91
2023-11-21T00:59:28.061Z,100422.56
2023-11-21T00:59:49.643Z,100416.34
2023-11-21T01:00:15.271Z,100419.03
2023-11-21T01:00:40.587Z,100428.88
2023-11-21T01:01:02.282Z,100426.16
2023-11-21T01:01:24.278Z,100426.16
2023-11-21T01:01:46.082Z,100423.00
2023-11-21T01:02:11.130Z,100427.09
2023-11-21T01:02:33.790Z,100427.94
2023-11-21T01:02:55.928Z,100429.75
2023-11-21T01:03:17.856Z,100426.91
2023-11-21T01:03:39.578Z,100424.41
2023-11-21T01:04:01.312Z,100429.53
2023-11-21T01:04:22.978Z,100426.91
2023-11-21T01:04:45.674Z,100433.78
2023-11-21T01:05:09.193Z,100431.25
2023-11-21T01:05:30.842Z,100429.31
2023-11-21T01:05:52.480Z,100442.56
2023-11-21T01:06:15.991Z,100431.97
2023-11-21T01:06:37.928Z,100437.31
2023-11-21T01:07:00.503Z,100434.63
2023-11-21T01:07:22.240Z,100429.47
2023-11-21T01:07:44.171Z,100427.72
2023-11-21T01:08:06.719Z,100436.66
2023-11-21T01:08:30.691Z,100431.31
2023-11-21T01:08:53.523Z,100434.91
2023-11-21T01:09:17.471Z,100429.69
2023-11-21T01:09:39.075Z,100432.34
2023-11-21T01:10:00.743Z,100430.63
2023-11-21T01:10:22.414Z,100421.81
2023-11-21T01:10:45.191Z,100433.34
2023-11-21T01:11:12.430Z,100424.56
2023-11-21T01:12:09.522Z,100433.34
2023-11-21T01:12:47.157Z,100432.63
2023-11-21T01:13:37.704Z,100430.13
2023-11-21T01:14:00.986Z,100439.59
2023-11-21T01:14:27.913Z,100435.25
2023-11-21T01:14:50.666Z,100440.69
2023-11-21T01:15:13.802Z,100446.97
2023-11-21T01:15:35.822Z,100447.91
2023-11-21T01:16:02.180Z,100443.50
2023-11-21T01:16:25.527Z,100447.16
2023-11-21T01:16:47.643Z,100439.16
2023-11-21T01:17:10.650Z,100443.72
2023-11-21T01:17:36.413Z,100442.81
2023-11-21T01:18:06.298Z,100444.59
2023-11-21T01:19:16.068Z,100446.34
2023-11-21T01:19:48.343Z,100448.19
2023-11-21T01:20:41.078Z,100401.78
2023-11-21T01:21:05.719Z,100454.50
2023-11-21T01:21:29.831Z,100451.00
2023-11-21T01:21:59.204Z,100455.53
2023-11-21T01:22:27.116Z,100455.59
2023-11-21T01:22:50.401Z,100452.06
2023-11-21T01:23:31.653Z,100448.75
2023-11-21T01:24:01.328Z,100445.94
2023-11-21T01:24:23.000Z,100453.78
2023-11-21T01:24:54.581Z,100453.03
2023-11-21T01:25:18.652Z,100450.19
2023-11-21T01:26:35.283Z,100459.13
2023-11-21T01:26:57.392Z,100455.59
2023-11-21T01:27:19.602Z,100467.94
2023-11-21T01:27:41.215Z,100460.06
2023-11-21T01:28:03.025Z,100461.78
2023-11-21T01:28:25.720Z,100459.13
2023-11-21T01:28:50.000Z,100463.59
2023-11-21T01:29:11.647Z,100453.78
2023-11-21T01:29:33.412Z,100460.88
2023-11-21T01:29:55.097Z,100457.28
2023-11-21T01:30:18.493Z,100460.00
2023-11-21T01:30:40.278Z,100456.41
2023-11-21T01:31:01.942Z,100463.38
2023-11-21T01:31:23.767Z,100457.31
2023-11-21T01:31:45.636Z,100457.28
2023-11-21T01:32:09.134Z,100457.28
2023-11-21T01:32:32.001Z,100453.69
2023-11-21T01:32:53.768Z,100454.50
2023-11-21T01:33:16.715Z,100467.78
2023-11-21T01:33:38.450Z,100458.13
2023-11-21T01:34:00.078Z,100456.69
2023-11-21T01:34:22.769Z,100461.84
2023-11-21T01:34:44.868Z,100460.00
2023-11-21T01:35:07.490Z,100465.25
2023-11-21T01:35:29.111Z,100451.06
2023-11-21T01:35:54.061Z,100459.84
2023-11-21T01:36:16.637Z,100463.31
2023-11-21T01:36:39.596Z,100457.13
2023-11-21T01:37:02.557Z,100449.94
2023-11-21T01:37:24.276Z,100461.47
2023-11-21T01:37:45.897Z,100458.69
2023-11-21T01:38:09.283Z,100455.16
2023-11-21T01:38:30.960Z,100466.78
2023-11-21T01:38:52.538Z,100464.13
2023-11-21T01:39:16.957Z,100461.50
2023-11-21T01:39:40.053Z,100459.72
2023-11-21T01:40:06.078Z,100465.06
2023-11-21T01:40:27.832Z,100461.47
2023-11-21T01:40:50.154Z,100469.38
2023-11-21T01:41:12.328Z,100469.38
2023-11-21T01:41:33.990Z,100467.56
2023-11-21T01:41:56.607Z,100467.44
2023-11-21T01:42:19.636Z,100467.50
2023-11-21T01:42:41.290Z,100460.44
2023-11-21T01:43:04.365Z,100458.63
2023-11-21T01:43:26.053Z,100466.56
2023-11-21T01:43:48.763Z,100459.44
2023-11-21T01:44:11.184Z,100463.03
2023-11-21T01:44:32.867Z,100458.56
2023-11-21T01:44:55.964Z,100459.44
2023-11-21T01:45:17.702Z,100457.66
2023-11-21T01:45:40.317Z,100457.66
2023-11-21T01:46:01.953Z,100457.66
2023-11-21T01:46:24.429Z,100458.56
2023-11-21T01:46:46.360Z,100459.50
2023-11-21T01:47:10.230Z,100456.69
2023-11-21T01:47:32.253Z,100462.97
2023-11-21T01:47:57.623Z,100459.28
2023-11-21T01:48:19.532Z,100460.16
2023-11-21T01:48:41.343Z,100459.28
2023-11-21T01:49:03.605Z,100457.56
2023-11-21T01:49:25.477Z,100457.56
2023-11-21T01:49:49.305Z,100455.69
2023-11-21T01:50:15.425Z,100448.03
2023-11-21T01:50:37.337Z,100462.00
2023-11-21T01:51:00.398Z,100462.00
2023-11-21T01:51:23.136Z,100460.31
2023-11-21T01:51:48.222Z,100457.72
2023-11-21T01:52:12.135Z,100471.09
2023-11-21T01:52:35.713Z,100472.84
2023-11-21T01:52:58.100Z,100466.69
2023-11-21T01:53:21.420Z,100471.16
2023-11-21T01:53:47.617Z,100471.16
2023-11-21T01:54:17.330Z,100472.03
2023-11-21T01:54:40.350Z,100465.91
2023-11-21T01:55:04.831Z,100473.75
2023-11-21T01:55:29.111Z,100478.44
2023-11-21T01:55:51.471Z,100473.16
2023-11-21T01:56:13.620Z,100478.44
2023-11-21T01:56:36.001Z,100476.59
2023-11-21T01:57:00.033Z,100473.06
2023-11-21T01:57:23.277Z,100479.31
2023-11-21T01:57:44.955Z,100480.19
2023-11-21T01:58:08.545Z,100476.69
2023-11-21T01:58:33.451Z,100476.78
2023-11-21T01:58:56.333Z,100481.16
2023-11-21T01:59:21.409Z,100473.25
2023-11-21T01:59:45.624Z,100473.25
2023-11-21T02:00:16.365Z,100482.13
2023-11-21T02:00:39.447Z,100475.84
2023-11-21T02:01:02.097Z,100476.69
2023-11-21T02:01:24.351Z,100474.03
2023-11-21T02:01:47.737Z,100475.72
2023-11-21T02:02:10.386Z,100475.72
2023-11-21T02:02:33.798Z,100477.34
2023-11-21T02:02:56.118Z,100482.69
2023-11-21T02:03:19.318Z,100473.81
2023-11-21T02:03:41.064Z,100477.34
2023-11-21T02:04:04.302Z,100470.22
2023-11-21T02:04:26.271Z,100481.75
2023-11-21T02:04:47.975Z,100479.03
2023-11-21T02:05:10.020Z,100475.50
2023-11-21T02:05:32.777Z,100476.31
2023-11-21T02:05:54.830Z,100482.41
2023-11-21T02:06:18.755Z,100475.44
2023-11-21T02:06:41.429Z,100475.50
2023-11-21T02:07:06.315Z,100473.81
2023-11-21T02:07:28.880Z,100472.84
2023-11-21T02:07:50.628Z,100478.16
2023-11-21T02:08:12.306Z,100476.44
2023-11-21T02:08:34.020Z,100476.44
2023-11-21T02:08:55.693Z,100474.63
2023-11-21T02:09:18.782Z,100475.78
2023-11-21T02:09:43.465Z,100481.91
2023-11-21T02:10:06.622Z,100476.66
2023-11-21T02:10:28.389Z,100475.84
2023-11-21T02:10:50.055Z,100480.25
2023-11-21T02:11:13.882Z,100478.50
2023-11-21T02:11:36.046Z,100483.78
2023-11-21T02:11:59.639Z,100478.50
2023-11-21T02:12:22.046Z,100473.16
2023-11-21T02:12:43.967Z,100483.06
2023-11-21T02:13:07.218Z,100482.25
2023-11-21T02:13:29.792Z,100484.91
2023-11-21T02:13:51.476Z,100478.81
2023-11-21T02:14:14.761Z,100474.63
2023-11-21T02:14:36.421Z,100489.47
2023-11-21T02:14:58.089Z,100483.31
2023-11-21T02:15:22.083Z,100477.94
2023-11-21T02:15:44.408Z,100489.53
2023-11-21T02:16:07.091Z,100489.38
2023-11-21T02:16:32.296Z,100493.00
2023-11-21T02:16:55.709Z,100491.97
2023-11-21T02:17:19.121Z,100486.66
2023-11-21T02:17:40.825Z,100499.00
2023-11-21T02:18:04.428Z,100491.97
2023-11-21T02:18:26.570Z,100482.13
2023-11-21T02:18:50.601Z,100491.00
2023-11-21T02:19:18.428Z,100491.00
2023-11-21T02:19:40.160Z,100494.50
2023-11-21T02:20:01.866Z,100483.19
2023-11-21T02:20:26.177Z,100497.09
2023-11-21T02:20:48.280Z,100488.31
2023-11-21T02:21:11.183Z,100499.81
2023-11-21T02:21:34.385Z,100497.16
2023-11-21T02:22:00.585Z,100489.38
2023-11-21T02:22:23.543Z,100491.81
2023-11-21T02:22:50.979Z,100501.72
2023-11-21T02:23:13.970Z,100493.72
2023-11-21T02:23:35.648Z,100494.59
2023-11-21T02:23:58.596Z,100494.59
2023-11-21T02:24:21.364Z,100498.25
2023-11-21T02:24:43.452Z,100496.50
2023-11-21T02:25:05.950Z,100492.25
2023-11-21T02:25:29.777Z,100485.34
2023-11-21T02:25:51.729Z,100497.53
2023-11-21T02:26:13.561Z,100498.44
2023-11-21T02:26:36.122Z,100494.84
2023-11-21T02:26:58.275Z,100500.34
2023-11-21T02:27:22.913Z,100503.78
2023-11-21T02:27:49.146Z,100501.25
2023-11-21T02:28:13.789Z,100494.19
2023-11-21T02:28:35.497Z,100497.72
2023-11-21T02:28:59.254Z,100500.44
2023-11-21T02:29:23.118Z,100496.00
2023-11-21T02:29:45.738Z,100502.19
2023-11-21T02:30:13.429Z,100495.88
2023-11-21T02:30:35.553Z,100503.78
2023-11-21T02:30:58.983Z,100502.91
2023-11-21T02:31:21.975Z,100497.56
2023-11-21T02:31:49.041Z,100493.28
2023-11-21T02:32:11.838Z,100505.50
2023-11-21T02:32:33.605Z,100502.78
2023-11-21T02:32:55.650Z,100509.00
2023-11-21T02:33:18.372Z,100502.84
2023-11-21T02:33:40.057Z,100507.38
2023-11-21T02:34:02.091Z,100503.88
2023-11-21T02:34:24.420Z,100506.31
2023-11-21T02:34:46.427Z,100495.00
2023-11-21T02:35:09.416Z,100501.00
2023-11-21T02:35:32.543Z,100503.66
2023-11-21T02:35:56.028Z,100504.50
2023-11-21T02:36:17.860Z,100488.16
2023-11-21T02:36:39.447Z,100509.00
2023-11-21T02:37:02.224Z,100503.66
2023-11-21T02:37:23.828Z,100509.00
2023-11-21T02:37:45.560Z,100503.66
2023-11-21T02:38:08.539Z,100507.16
2023-11-21T02:38:30.217Z,100505.47
2023-11-21T02:38:51.850Z,100503.66
2023-11-21T02:39:14.558Z,100510.69
2023-11-21T02:39:36.711Z,100510.78
2023-11-21T02:39:58.454Z,100513.50
2023-11-21T02:40:21.744Z,100512.50
2023-11-21T02:40:44.269Z,100508.13
2023-11-21T02:41:06.944Z,100506.31
2023-11-21T02:41:28.698Z,100513.44
2023-11-21T02:41:50.541Z,100516.19
2023-11-21T02:42:12.157Z,100512.59
2023-11-21T02:42:33.804Z,100512.59
2023-11-21T02:42:55.542Z,100509.81
2023-11-21T02:43:18.316Z,100507.16
2023-11-21T02:43:40.660Z,100507.97
2023-11-21T02:44:02.297Z,100511.50
2023-11-21T02:44:23.957Z,100507.91
2023-11-21T02:44:46.259Z,100511.44
2023-11-21T02:45:09.136Z,100504.50
2023-11-21T02:45:31.817Z,100511.34
2023-11-21T02:45:53.439Z,100513.09
2023-11-21T02:46:15.165Z,100510.44
2023-11-21T02:46:37.970Z,100509.50
2023-11-21T02:46:59.799Z,100513.91
2023-11-21T02:47:22.452Z,100515.63
2023-11-21T02:47:44.308Z,100511.25
2023-11-21T02:48:07.201Z,100508.69
2023-11-21T02:48:28.869Z,100513.81
2023-11-21T02:48:52.089Z,100510.22
2023-11-21T02:49:14.765Z,100511.94
2023-11-21T02:49:36.912Z,100503.09
2023-11-21T02:49:58.587Z,100513.75
2023-11-21T02:50:21.243Z,100504.09
2023-11-21T02:50:44.171Z,100511.94
2023-11-21T02:51:06.930Z,100496.31
2023-11-21T02:51:29.799Z,100500.56
2023-11-21T02:51:51.401Z,100509.34
2023-11-21T02:52:13.101Z,100512.81
2023-11-21T02:52:34.870Z,100507.69
2023-11-21T02:52:58.713Z,100506.69
2023-11-21T02:53:22.678Z,100510.22
2023-11-21T02:53:44.292Z,100513.69
2023-11-21T02:54:07.861Z,100503.91
2023-11-21T02:54:30.011Z,100509.28
2023-11-21T02:54:52.382Z,100501.34
2023-11-21T02:55:14.757Z,100517.28
2023-11-21T02:55:37.461Z,100503.03
2023-11-21T02:55:59.152Z,100510.16
2023-11-21T02:56:21.437Z,100511.03
2023-11-21T02:56:43.209Z,100506.56
2023-11-21T02:57:05.468Z,100508.41
2023-11-21T02:57:27.068Z,100515.50
2023-11-21T02:57:49.643Z,100515.34
2023-11-21T02:58:11.247Z,100507.34
2023-11-21T02:58:32.877Z,100510.00
2023-11-21T02:58:56.761Z,100513.63
2023-11-21T02:59:20.285Z,100509.13
2023-11-21T02:59:41.910Z,100505.53
2023-11-21T03:00:08.442Z,100514.47
2023-11-21T03:00:30.135Z,100509.88
2023-11-21T03:00:52.875Z,100513.53
2023-11-21T03:01:14.600Z,100511.75
2023-11-21T03:01:37.449Z,100507.28
2023-11-21T03:01:59.257Z,100515.28
2023-11-21T03:02:21.018Z,100513.53
2023-11-21T03:02:43.179Z,100514.34
2023-11-21T03:03:05.759Z,100509.06
2023-11-21T03:03:28.495Z,100521.53
2023-11-21T03:03:52.172Z,100520.66
2023-11-21T03:04:18.716Z,100512.88
2023-11-21T03:04:40.375Z,100514.47
2023-11-21T03:05:02.125Z,100510.97
2023-11-21T03:05:23.802Z,100517.22
2023-11-21T03:05:46.424Z,100510.16
2023-11-21T03:06:10.037Z,100511.03
2023-11-21T03:06:31.644Z,100511.03
2023-11-21T03:06:53.241Z,100514.56
2023-11-21T03:07:14.979Z,100515.44
2023-11-21T03:07:38.229Z,100503.97
2023-11-21T03:08:00.823Z,100514.56
2023-11-21T03:08:23.751Z,100517.22
2023-11-21T03:08:45.740Z,100513.63
2023-11-21T03:09:07.690Z,100509.28
2023-11-21T03:09:29.776Z,100521.69
2023-11-21T03:09:51.609Z,100516.34
2023-11-21T03:10:14.314Z,100510.97
2023-11-21T03:10:36.722Z,100510.09
2023-11-21T03:10:58.419Z,100507.56
2023-11-21T03:11:20.213Z,100511.81
2023-11-21T03:11:41.891Z,100518.97
2023-11-21T03:12:04.975Z,100518.97
2023-11-21T03:12:26.892Z,100515.50
2023-11-21T03:12:48.582Z,100522.56
2023-11-21T03:13:10.229Z,100519.09
2023-11-21T03:13:31.905Z,100513.91
2023-11-21T03:13:53.706Z,100520.81
2023-11-21T03:14:15.716Z,100501.72
2023-11-21T03:14:38.362Z,100523.53
2023-11-21T03:15:00.622Z,100520.09
2023-11-21T03:15:22.312Z,100520.16
2023-11-21T03:15:43.964Z,100527.09
2023-11-21T03:16:07.209Z,100518.31
2023-11-21T03:16:30.034Z,100522.56
2023-11-21T03:16:51.841Z,100521.69
2023-11-21T03:17:13.532Z,100526.09
2023-11-21T03:17:35.413Z,100522.63
2023-11-21T03:17:58.351Z,100524.47
2023-11-21T03:18:20.231Z,100528.16
2023-11-21T03:18:42.980Z,100537.91
2023-11-21T03:19:04.877Z,100520.22
2023-11-21T03:19:26.550Z,100526.31
2023-11-21T03:19:49.180Z,100528.16
2023-11-21T03:20:12.904Z,100524.56
2023-11-21T03:20:35.857Z,100532.78
2023-11-21T03:20:58.204Z,100531.03
2023-11-21T03:21:21.278Z,100533.44
2023-11-21T03:21:42.949Z,100539.63
2023-11-21T03:22:05.302Z,100538.75
2023-11-21T03:22:27.493Z,100535.13
2023-11-21T03:22:49.251Z,100540.56
2023-11-21T03:23:11.968Z,100536.97
2023-11-21T03:23:34.962Z,100539.63
2023-11-21T03:23:57.421Z,100524.69
2023-11-21T03:24:20.693Z,100529.81
2023-11-21T03:24:42.307Z,100530.66
2023-11-21T03:25:05.838Z,100533.34
2023-11-21T03:25:28.153Z,100536.00
2023-11-21T03:25:50.093Z,100535.94
2023-11-21T03:26:13.849Z,100536.00
2023-11-21T03:26:35.644Z,100543.13
2023-11-21T03:26:58.236Z,100544.16
2023-11-21T03:27:20.013Z,100540.47
2023-11-21T03:27:41.693Z,100537.75
2023-11-21T03:28:04.285Z,100528.88
2023-11-21T03:28:26.044Z,100541.34
2023-11-21T03:28:48.732Z,100535.06
2023-11-21T03:29:10.382Z,100540.41
2023-11-21T03:29:32.112Z,100537.69
2023-11-21T03:29:55.429Z,100537.75
2023-11-21T03:30:17.788Z,100535.94
2023-11-21T03:30:40.454Z,100539.53
2023-11-21T03:31:02.073Z,100536.97
2023-11-21T03:31:23.826Z,100547.63
2023-11-21T03:31:45.550Z,100545.88
2023-11-21T03:32:08.223Z,100547.69
2023-11-21T03:32:34.115Z,100532.78
2023-11-21T03:32:55.803Z,100541.44
2023-11-21T03:33:18.450Z,100544.09
2023-11-21T03:33:40.086Z,100541.50
2023-11-21T03:34:01.787Z,100542.31
2023-11-21T03:34:27.182Z,100545.78
2023-11-21T03:34:57.844Z,100546.81
2023-11-21T03:35:22.070Z,100549.34
2023-11-21T03:35:45.671Z,100548.47
2023-11-21T03:36:09.096Z,100539.63
2023-11-21T03:36:31.731Z,100550.28
2023-11-21T03:36:53.752Z,100545.03
2023-11-21T03:37:15.672Z,100544.22
2023-11-21T03:37:39.288Z,100541.50
2023-11-21T03:38:00.977Z,100545.88
2023-11-21T03:38:24.900Z,100543.28
2023-11-21T03:38:50.786Z,100545.03
2023-11-21T03:39:12.473Z,100545.09
2023-11-21T03:39:34.111Z,100551.22
2023-11-21T03:39:56.535Z,100545.09
2023-11-21T03:40:18.263Z,100549.47
2023-11-21T03:40:40.727Z,100545.09
2023-11-21T03:41:03.359Z,100543.34
2023-11-21T03:41:25.125Z,100544.31
2023-11-21T03:41:46.880Z,100545.03
2023-11-21T03:42:08.563Z,100545.09
2023-11-21T03:42:30.184Z,100549.53
2023-11-21T03:42:53.010Z,100545.09
2023-11-21T03:43:16.246Z,100542.47
2023-11-21T03:43:38.054Z,100553.78
2023-11-21T03:44:00.346Z,100557.44
2023-11-21T03:44:23.288Z,100549.44
2023-11-21T03:44:45.307Z,100553.78
2023-11-21T03:45:09.788Z,100548.66
2023-11-21T03:45:31.862Z,100548.56
2023-11-21T03:45:53.499Z,100552.09
2023-11-21T03:46:15.444Z,100551.22
2023-11-21T03:46:38.366Z,100547.75
2023-11-21T03:47:00.286Z,100552.09
2023-11-21T03:47:23.090Z,100560.97
2023-11-21T03:47:45.065Z,100555.75
2023-11-21T03:48:06.858Z,100566.34
2023-11-21T03:48:28.585Z,100560.09
2023-11-21T03:48:50.312Z,100556.56
2023-11-21T03:49:12.985Z,100557.44
2023-11-21T03:49:35.254Z,100560.00
2023-11-21T03:49:57.011Z,100564.47
2023-11-21T03:50:18.922Z,100559.13
2023-11-21T03:50:41.503Z,100556.47
2023-11-21T03:51:03.103Z,100558.28
2023-11-21T03:51:24.727Z,100562.81
2023-11-21T03:51:46.363Z,100562.59
2023-11-21T03:52:08.852Z,100553.06
2023-11-21T03:52:31.124Z,100563.53
2023-11-21T03:52:55.144Z,100564.41
2023-11-21T03:53:18.063Z,100570.66
2023-11-21T03:53:39.632Z,100565.34
2023-11-21T03:54:06.043Z,100563.47
2023-11-21T03:54:27.664Z,100576.88
2023-11-21T03:54:49.292Z,100569.78
2023-11-21T03:55:11.689Z,100567.22
2023-11-21T03:55:37.122Z,100564.59
2023-11-21T03:55:59.240Z,100576.09
2023-11-21T03:56:22.684Z,100570.66
2023-11-21T03:56:44.411Z,100572.53
2023-11-21T03:57:06.131Z,100571.63
2023-11-21T03:57:28.775Z,100576.09
2023-11-21T03:57:52.303Z,100577.88
2023-11-21T03:58:15.152Z,100575.28
2023-11-21T03:58:36.835Z,100581.41
2023-11-21T03:58:58.425Z,100577.78
2023-11-21T03:59:20.307Z,100575.22
2023-11-21T03:59:43.424Z,100572.66
2023-11-21T04:00:09.440Z,100571.75
2023-11-21T04:00:33.801Z,100582.41
2023-11-21T04:00:55.401Z,100578.97
2023-11-21T04:01:22.804Z,100578.09
2023-11-21T04:01:45.542Z,100581.63
2023-11-21T04:02:08.672Z,100577.13
2023-11-21T04:02:30.739Z,100577.13
2023-11-21T04:02:53.002Z,100580.75
2023-11-21T04:03:14.855Z,100579.88
2023-11-21T04:03:37.947Z,100579.00
2023-11-21T04:04:00.328Z,100580.81
2023-11-21T04:04:22.017Z,100576.41
2023-11-21T04:04:43.875Z,100580.00
2023-11-21T04:05:08.109Z,100583.63
2023-11-21T04:05:29.964Z,100585.31
2023-11-21T04:05:52.618Z,100585.31
2023-11-21T04:06:14.377Z,100579.22
2023-11-21T04:06:36.960Z,100592.44
2023-11-21T04:06:58.637Z,100584.41
2023-11-21T04:07:20.272Z,100585.28
2023-11-21T04:07:42.148Z,100589.66
2023-11-21T04:08:05.099Z,100590.53
2023-11-21T04:08:27.181Z,100591.47
2023-11-21T04:08:48.852Z,100587.88
2023-11-21T04:09:11.901Z,100587.72
2023-11-21T04:09:33.642Z,100590.41
2023-11-21T04:09:55.315Z,100595.72
2023-11-21T04:10:18.170Z,100591.22
2023-11-21T04:10:40.733Z,100591.25
2023-11-21T04:11:02.489Z,100590.41
2023-11-21T04:11:24.065Z,100594.94
2023-11-21T04:11:46.684Z,100596.75
2023-11-21T04:12:10.588Z,100594.00
2023-11-21T04:12:32.221Z,100591.41
2023-11-21T04:12:53.928Z,100580.13
2023-11-21T04:13:15.607Z,100592.28
2023-11-21T04:13:37.254Z,100595.00
2023-11-21T04:13:59.858Z,100588.00
2023-11-21T04:14:21.625Z,100588.19
2023-11-21T04:14:43.227Z,100589.06
2023-11-21T04:15:05.380Z,100590.66
2023-11-21T04:15:27.305Z,100593.31
2023-11-21T04:15:48.916Z,100593.25
2023-11-21T04:16:11.632Z,100596.81
2023-11-21T04:16:33.326Z,100592.41
2023-11-21T04:16:55.434Z,100586.28
2023-11-21T04:17:19.204Z,100594.41
2023-11-21T04:17:41.126Z,100594.41
2023-11-21T04:18:04.095Z,100588.28
2023-11-21T04:18:25.782Z,100594.53
2023-11-21T04:18:47.391Z,100594.41
2023-11-21T04:19:11.332Z,100590.13
2023-11-21T04:19:33.048Z,100597.16
2023-11-21T04:19:54.787Z,100597.16
2023-11-21T04:20:17.571Z,100599.81
2023-11-21T04:20:39.234Z,100600.66
2023-11-21T04:21:00.843Z,100604.19
2023-11-21T04:21:22.602Z,100598.84
2023-11-21T04:21:44.419Z,100597.16
2023-11-21T04:22:07.080Z,100605.06
2023-11-21T04:22:28.787Z,100603.31
2023-11-21T04:22:50.519Z,100598.94
2023-11-21T04:23:14.705Z,100599.00
2023-11-21T04:23:36.910Z,100602.53
2023-11-21T04:23:59.528Z,100606.94
2023-11-21T04:24:22.566Z,100603.31
2023-11-21T04:24:44.201Z,100600.66
2023-11-21T04:25:06.154Z,100613.06
2023-11-21T04:25:29.271Z,100601.59
2023-11-21T04:25:51.064Z,100594.41
2023-11-21T04:26:13.670Z,100603.25
2023-11-21T04:26:35.396Z,100605.06
2023-11-21T04:26:57.141Z,100604.06
2023-11-21T04:27:19.055Z,100601.59
2023-11-21T04:27:41.386Z,100596.34
2023-11-21T04:28:04.028Z,100602.38
2023-11-21T04:28:26.013Z,100601.53
2023-11-21T04:28:47.858Z,100597.97
2023-11-21T04:29:09.603Z,100602.47
2023-11-21T04:29:31.312Z,100600.66
2023-11-21T04:29:53.009Z,100601.59
2023-11-21T04:30:16.766Z,100599.00
2023-11-21T04:30:40.579Z,100603.47